Radville, Canada
Current Conditions -  °F | °C
As of 6:55 AM on Wednesday 26 Nov 2014 (Local Time) from KD50 Reporting Station
Overcast Overcast  
Wind Chill: -8°   Ceiling: 8000
Heat Index:   Visibility: 10mi
Dew Point:   Wind: 8mph
Humidity: 85%   Direction: 350°N
Pressure: 30.3"   Gusts: NA
Location:  49.47°N, 104.28°W
Report Text: KD50 261255Z AUTO 35007KT 10SM OVC080 M15/M17 A3030 RMK AO2
Loading
Personal Weather Stations






























Interactive Weather Map New forecast layout! Learn more

10-Day Weather Forecast

Advertisements
Track Severe Weather on mobile